Time,TemperatureF,DewpointF,PressureIn,WindDirection,WindDirectionDegrees,WindSpeedMPH,WindSpeedGustMPH,Humidity,HourlyPrecipIn,Conditions,Clouds,dailyrainin,SoftwareType,DateUTC
2013-06-22 19:30:00,78.6,0.0,29.95,SE,135,1.0,17.0,0,0.00,,---,1.98,VWS V14.00,2013-06-23 00:30:00,
2013-06-22 20:56:00,76.5,0.0,29.96,SE,145,0.0,1.0,0,0.00,,---,1.98,VWS V14.00,2013-06-23 01:56:00,
2013-06-22 20:58:00,76.3,0.0,29.96,SE,134,0.0,1.0,0,0.00,,---,1.98,VWS V14.00,2013-06-23 01:58:00,
2013-06-22 21:03:00,76.1,0.0,29.96,SE,132,0.0,5.0,0,0.00,,---,1.98,VWS V14.00,2013-06-23 02:03:00,
2013-06-22 21:08:00,76.1,0.0,29.96,ESE,116,0.0,5.0,0,0.00,,---,1.98,VWS V14.00,2013-06-23 02:08:00,
2013-06-22 21:13:00,76.1,0.0,29.96,ESE,116,0.0,5.0,0,0.00,,---,1.98,VWS V14.00,2013-06-23 02:13:00,
2013-06-22 21:18:00,76.1,0.0,29.96,ESE,116,0.0,5.0,0,0.00,,---,1.98,VWS V14.00,2013-06-23 02:18:00,
2013-06-22 21:23:00,75.6,0.0,29.97,SE,132,0.0,5.0,0,0.00,,---,1.98,VWS V14.00,2013-06-23 02:23:00,
2013-06-22 21:28:00,75.6,0.0,29.97,SE,132,0.0,5.0,0,0.00,,---,1.98,VWS V14.00,2013-06-23 02:28:00,
2013-06-22 21:33:00,75.6,0.0,29.97,SE,132,0.0,5.0,0,0.00,,---,1.98,VWS V14.00,2013-06-23 02:33:00,
2013-06-22 21:39:00,75.6,0.0,29.97,SE,132,0.0,5.0,0,0.00,,---,1.98,VWS V14.00,2013-06-23 02:39:00,
2013-06-22 21:44:00,75.6,0.0,29.97,SE,132,0.0,5.0,0,0.00,,---,1.98,VWS V14.00,2013-06-23 02:44:00,
2013-06-22 21:49:00,75.6,0.0,29.97,SE,132,0.0,5.0,0,0.00,,---,1.98,VWS V14.00,2013-06-23 02:49:00,
2013-06-22 21:54:00,75.6,0.0,29.97,SE,132,0.0,5.0,0,0.00,,---,1.98,VWS V14.00,2013-06-23 02:54:00,
2013-06-22 21:59:00,75.6,0.0,29.97,SE,132,0.0,5.0,0,0.00,,---,1.98,VWS V14.00,2013-06-23 02:59:00,
2013-06-22 22:04:00,74.4,0.0,29.99,SE,141,0.0,5.0,0,0.00,,---,1.98,VWS V14.00,2013-06-23 03:04:00,
2013-06-22 22:09:00,74.4,0.0,29.99,SE,141,0.0,5.0,0,0.00,,---,1.98,VWS V14.00,2013-06-23 03:09:00,
2013-06-22 22:14:00,74.4,0.0,29.99,SE,141,0.0,5.0,0,0.00,,---,1.98,VWS V14.00,2013-06-23 03:14:00,
2013-06-22 22:19:00,74.4,0.0,29.99,SE,141,0.0,5.0,0,0.00,,---,1.98,VWS V14.00,2013-06-23 03:19:00,
2013-06-22 22:24:00,73.7,0.0,30.00,SE,137,0.0,0.0,0,0.00,,---,1.98,VWS V14.00,2013-06-23 03:24:00,
2013-06-22 22:29:00,73.7,0.0,30.00,SE,137,0.0,0.0,0,0.00,,---,1.98,VWS V14.00,2013-06-23 03:29:00,
2013-06-22 22:30:00,73.5,0.0,30.00,North,0,0.0,0.0,0,0.00,,---,1.98,VWS V14.00,2013-06-23 03:30:00,
2013-06-22 22:34:00,73.7,0.0,30.00,SE,137,0.0,0.0,0,0.00,,---,1.98,VWS V14.00,2013-06-23 03:34:00,
2013-06-22 22:39:00,73.7,0.0,30.00,SE,137,0.0,0.0,0,0.00,,---,1.98,VWS V14.00,2013-06-23 03:39:00,
2013-06-22 22:44:00,73.7,0.0,30.00,SE,137,0.0,0.0,0,0.00,,---,1.98,VWS V14.00,2013-06-23 03:44:00,
2013-06-22 22:49:00,73.7,0.0,30.00,SE,137,0.0,0.0,0,0.00,,---,1.98,VWS V14.00,2013-06-23 03:49:00,
2013-06-22 22:54:00,73.7,0.0,30.00,SE,137,0.0,0.0,0,0.00,,---,1.98,VWS V14.00,2013-06-23 03:54:00,
2013-06-22 22:59:00,73.7,0.0,30.00,SE,137,0.0,0.0,0,0.00,,---,1.98,VWS V14.00,2013-06-23 03:59:00,
2013-06-22 23:01:00,73.7,0.0,30.00,SE,137,0.0,0.0,0,0.00,,---,1.98,VWS V14.00,2013-06-23 04:01:00,
2013-06-22 23:02:00,73.7,0.0,30.00,SE,137,0.0,0.0,0,0.00,,---,1.98,VWS V14.00,2013-06-23 04:02:00,
2013-06-22 23:26:00,72.1,0.0,30.03,SE,137,0.0,0.0,0,0.00,,---,1.98,VWS V14.00,2013-06-23 04:26:00,
2013-06-22 23:31:00,72.1,0.0,30.03,SE,137,0.0,0.0,0,0.00,,---,1.98,VWS V14.00,2013-06-23 04:31:00,
2013-06-22 23:36:00,72.1,0.0,30.03,SE,137,0.0,0.0,0,0.00,,---,1.98,VWS V14.00,2013-06-23 04:36:00,
2013-06-22 23:41:00,72.0,0.0,30.03,SE,137,0.0,0.0,0,0.00,,---,1.98,VWS V14.00,2013-06-23 04:41:00,
2013-06-22 23:46:00,71.8,0.0,30.02,SE,137,0.0,0.0,0,0.00,,---,1.98,VWS V14.00,2013-06-23 04:46:00,
2013-06-22 23:51:00,71.8,0.0,30.03,SE,137,0.0,0.0,0,0.00,,---,1.98,VWS V14.00,2013-06-23 04:51:00,
2013-06-22 23:57:00,71.8,0.0,30.04,NW,323,0.0,1.0,0,0.00,,---,1.98,VWS V14.00,2013-06-23 04:57:00,